createdAt,value
2023-02-02T00:02:57.665Z,26.55
2023-02-02T00:06:05.335Z,24.45
2023-02-02T00:09:15.289Z,25.15
2023-02-02T00:12:20.177Z,24.55
2023-02-02T00:15:26.496Z,24.32
2023-02-02T00:18:26.492Z,26.12
2023-02-02T00:21:25.338Z,27.32
2023-02-02T00:24:32.594Z,26.35
2023-02-02T00:27:37.492Z,24.10
2023-02-02T00:30:43.831Z,23.20
2023-02-02T00:33:51.538Z,26.37
2023-02-02T00:36:58.302Z,28.38
2023-02-02T00:40:04.362Z,25.82
2023-02-02T00:43:11.056Z,24.00
2023-02-02T00:46:18.132Z,24.37
2023-02-02T00:49:24.779Z,22.98
2023-02-02T00:52:31.328Z,23.15
2023-02-02T00:55:38.445Z,22.60
2023-02-02T00:58:44.647Z,21.27
2023-02-02T01:01:50.602Z,23.90
2023-02-02T01:04:56.829Z,24.55
2023-02-02T01:07:58.575Z,22.50
2023-02-02T01:11:05.047Z,17.00
2023-02-02T01:14:10.664Z,20.88
2023-02-02T01:17:16.561Z,21.73
2023-02-02T01:20:23.064Z,24.00
2023-02-02T01:23:31.230Z,19.27
2023-02-02T01:26:37.236Z,23.10
2023-02-02T01:29:43.411Z,23.07
2023-02-02T01:32:48.823Z,23.45
2023-02-02T01:36:06.707Z,23.77
2023-02-02T01:39:12.739Z,20.23
2023-02-02T01:42:17.866Z,22.48
2023-02-02T01:45:33.823Z,22.80
2023-02-02T01:48:44.616Z,21.40
2023-02-02T01:52:09.257Z,21.73
2023-02-02T01:55:22.275Z,23.52
2023-02-02T01:58:39.070Z,21.95
2023-02-02T02:01:45.389Z,23.15
2023-02-02T02:04:50.871Z,23.07
2023-02-02T02:07:57.093Z,20.43
2023-02-02T02:10:56.279Z,22.25
2023-02-02T02:14:21.358Z,23.18
2023-02-02T02:17:53.112Z,21.25
2023-02-02T02:21:37.119Z,21.80
2023-02-02T02:25:25.148Z,22.48
2023-02-02T02:28:51.496Z,23.85
2023-02-02T02:32:39.484Z,23.42
2023-02-02T02:36:13.034Z,22.80
2023-02-02T02:39:33.473Z,24.37
2023-02-02T02:42:41.992Z,23.27
2023-02-02T02:45:47.832Z,22.07
2023-02-02T02:48:52.959Z,21.97
2023-02-02T02:52:08.927Z,22.48
2023-02-02T02:55:14.628Z,23.27
2023-02-02T02:58:27.866Z,21.57
2023-02-02T03:01:50.724Z,21.77
2023-02-02T03:05:09.750Z,22.30
2023-02-02T03:08:24.332Z,22.70
2023-02-02T03:11:29.617Z,21.82
2023-02-02T03:14:35.628Z,23.60
2023-02-02T03:17:43.412Z,24.37
2023-02-02T03:20:49.002Z,23.38
2023-02-02T03:23:55.675Z,22.15
2023-02-02T03:27:01.550Z,20.75
2023-02-02T03:30:07.535Z,22.60
2023-02-02T03:33:13.076Z,22.77
2023-02-02T03:36:19.670Z,22.77
2023-02-02T03:39:26.182Z,24.87
2023-02-02T03:42:32.747Z,24.35
2023-02-02T03:45:42.473Z,24.52
2023-02-02T03:48:53.015Z,22.73
2023-02-02T03:51:59.076Z,22.27
2023-02-02T03:55:05.492Z,23.30
2023-02-02T03:58:11.136Z,24.20
2023-02-02T04:01:24.362Z,23.60
2023-02-02T04:04:29.925Z,24.60
2023-02-02T04:07:36.343Z,22.80
2023-02-02T04:10:42.071Z,22.58
2023-02-02T04:13:49.787Z,25.77
2023-02-02T04:16:57.341Z,21.42
2023-02-02T04:20:04.461Z,26.42
2023-02-02T04:23:11.093Z,24.57
2023-02-02T04:26:17.531Z,31.37
2023-02-02T04:29:24.475Z,25.77
2023-02-02T04:32:31.029Z,22.00
2023-02-02T04:35:37.398Z,22.30
2023-02-02T04:38:42.805Z,19.87
2023-02-02T04:41:48.681Z,22.10
2023-02-02T04:44:54.401Z,21.93
2023-02-02T04:48:01.060Z,21.05
2023-02-02T04:51:15.706Z,20.70
2023-02-02T04:54:22.577Z,21.48
2023-02-02T04:57:27.368Z,22.50
2023-02-02T05:00:32.837Z,20.10
2023-02-02T05:03:38.200Z,21.23
2023-02-02T05:06:43.933Z,17.80
2023-02-02T05:09:43.768Z,18.02
2023-02-02T05:12:36.237Z,18.77
2023-02-02T05:15:41.308Z,18.42
2023-02-02T05:18:47.966Z,16.17
2023-02-02T05:21:56.344Z,17.20
2023-02-02T05:25:02.634Z,20.08
2023-02-02T05:28:08.357Z,20.08
2023-02-02T05:31:14.840Z,18.98
2023-02-02T05:34:20.408Z,19.75
2023-02-02T05:37:27.778Z,20.02
2023-02-02T05:40:34.309Z,21.93
2023-02-02T05:43:44.124Z,19.80
2023-02-02T05:46:45.408Z,22.02
2023-02-02T05:52:58.555Z,19.73
2023-02-02T05:56:04.714Z,21.80
2023-02-02T05:59:11.758Z,21.60
2023-02-02T06:02:17.140Z,21.77
2023-02-02T06:05:23.364Z,21.62
2023-02-02T06:08:28.661Z,21.20
2023-02-02T06:11:34.216Z,23.05
2023-02-02T06:14:40.236Z,21.55
2023-02-02T06:17:45.419Z,22.07
2023-02-02T06:20:53.714Z,21.27
2023-02-02T06:24:00.604Z,21.93
2023-02-02T06:27:09.365Z,23.67
2023-02-02T06:30:21.399Z,22.42
2023-02-02T06:33:26.723Z,23.07
2023-02-02T06:36:35.244Z,24.75
2023-02-02T06:39:41.109Z,28.15
2023-02-02T06:42:46.458Z,24.10
2023-02-02T06:45:52.487Z,24.35
2023-02-02T06:48:57.994Z,24.32
2023-02-02T06:52:03.611Z,22.75
2023-02-02T06:55:11.505Z,22.62
2023-02-02T06:58:18.031Z,21.82
2023-02-02T07:01:26.781Z,22.05
2023-02-02T07:04:34.899Z,21.82
2023-02-02T07:07:45.097Z,22.45
2023-02-02T07:11:11.582Z,20.37
2023-02-02T07:14:14.959Z,18.12
2023-02-02T07:17:20.053Z,19.57
2023-02-02T07:20:27.792Z,18.32
2023-02-02T07:23:32.969Z,20.08
2023-02-02T07:26:38.711Z,20.45
2023-02-02T07:29:47.013Z,20.08
2023-02-02T07:32:53.642Z,16.90
2023-02-02T07:36:01.343Z,15.53
2023-02-02T07:39:10.574Z,16.77
2023-02-02T07:42:17.854Z,18.12
2023-02-02T07:45:27.224Z,18.95
2023-02-02T07:48:30.888Z,18.37
2023-02-02T07:51:38.260Z,18.73
2023-02-02T07:54:43.417Z,17.32
2023-02-02T07:57:49.188Z,16.15
2023-02-02T08:00:55.755Z,16.85
2023-02-02T08:04:02.002Z,21.10
2023-02-02T08:07:07.681Z,19.05
2023-02-02T08:10:16.370Z,18.65
2023-02-02T08:13:24.819Z,18.65
2023-02-02T08:16:29.927Z,17.32
2023-02-02T08:19:35.695Z,16.10
2023-02-02T08:22:50.646Z,16.12
2023-02-02T08:25:57.670Z,17.25
2023-02-02T08:29:09.802Z,16.17
2023-02-02T08:32:16.541Z,15.35
2023-02-02T08:35:21.426Z,15.10
2023-02-02T08:38:27.007Z,13.95
2023-02-02T08:41:36.495Z,14.90
2023-02-02T08:45:59.538Z,13.65
2023-02-02T08:47:56.005Z,15.75
2023-02-02T08:50:56.050Z,16.75
2023-02-02T08:54:02.257Z,14.83
2023-02-02T08:57:07.040Z,14.85
2023-02-02T09:00:13.818Z,13.43
2023-02-02T09:03:19.607Z,14.47
2023-02-02T09:06:33.327Z,14.98
2023-02-02T09:09:38.883Z,15.25
2023-02-02T09:12:45.111Z,16.50
2023-02-02T09:15:50.520Z,17.27
2023-02-02T09:18:56.438Z,18.87
2023-02-02T09:22:04.008Z,15.30
2023-02-02T09:25:09.632Z,15.65
2023-02-02T09:28:15.192Z,14.73
2023-02-02T09:31:20.395Z,16.10
2023-02-02T09:34:27.886Z,16.05
2023-02-02T09:37:32.952Z,18.77
2023-02-02T09:40:38.811Z,15.65
2023-02-02T09:44:13.392Z,16.00
2023-02-02T09:48:02.166Z,16.00
2023-02-02T09:51:12.589Z,16.07
2023-02-02T09:57:35.327Z,13.43
2023-02-02T10:00:49.845Z,12.13
2023-02-02T10:04:18.373Z,12.93
2023-02-02T10:07:29.958Z,12.98
2023-02-02T10:10:52.131Z,14.33
2023-02-02T10:14:00.666Z,13.20
2023-02-02T10:17:08.660Z,15.40
2023-02-02T10:20:31.274Z,15.03
2023-02-02T10:23:54.657Z,15.50
2023-02-02T10:27:20.255Z,14.75
2023-02-02T10:30:34.476Z,14.60
2023-02-02T10:33:55.049Z,11.90
2023-02-02T10:40:50.793Z,11.68
2023-02-02T10:44:20.444Z,12.45
2023-02-02T10:47:30.053Z,15.13
2023-02-02T10:50:35.895Z,15.97
2023-02-02T10:53:43.643Z,12.75
2023-02-02T10:56:59.093Z,10.30
2023-02-02T11:00:31.998Z,12.88
2023-02-02T11:03:47.363Z,15.68
2023-02-02T11:07:01.434Z,16.15
2023-02-02T11:10:06.582Z,16.70
2023-02-02T11:13:12.563Z,16.02
2023-02-02T11:16:43.183Z,16.67
2023-02-02T11:19:46.493Z,14.70
2023-02-02T11:22:52.329Z,15.43
2023-02-02T11:25:57.933Z,16.52
2023-02-02T11:29:05.421Z,19.25
2023-02-02T11:32:10.273Z,18.67
2023-02-02T11:35:36.646Z,18.35
2023-02-02T11:38:42.460Z,19.75
2023-02-02T11:41:48.851Z,18.00
2023-02-02T11:44:54.841Z,17.80
2023-02-02T11:48:00.799Z,17.17
2023-02-02T11:51:09.992Z,13.75
2023-02-02T11:54:36.500Z,14.25
2023-02-02T11:57:42.726Z,15.60
2023-02-02T12:00:47.830Z,14.65
2023-02-02T12:03:54.067Z,13.08
2023-02-02T12:07:00.519Z,13.70
2023-02-02T12:10:05.394Z,12.53
2023-02-02T12:13:33.044Z,12.13
2023-02-02T12:17:02.175Z,12.45
2023-02-02T12:20:27.604Z,13.80
2023-02-02T12:23:40.583Z,11.93
2023-02-02T12:26:50.858Z,11.95
2023-02-02T12:30:19.338Z,11.35
2023-02-02T12:34:01.648Z,11.78
2023-02-02T12:37:40.936Z,10.93
2023-02-02T12:41:02.327Z,12.70
2023-02-02T12:44:23.675Z,12.43
2023-02-02T12:47:50.652Z,11.68
2023-02-02T12:51:33.474Z,12.85
2023-02-02T12:54:52.497Z,11.38
2023-02-02T12:58:27.112Z,11.90
2023-02-02T13:01:49.114Z,11.15
2023-02-02T13:05:35.814Z,8.73
2023-02-02T13:09:20.374Z,10.65
2023-02-02T13:12:26.953Z,10.68
2023-02-02T13:15:33.474Z,8.78
2023-02-02T13:18:31.264Z,11.20
2023-02-02T13:21:26.234Z,11.03
2023-02-02T13:24:13.095Z,8.85
2023-02-02T13:27:06.830Z,10.63
2023-02-02T13:30:01.598Z,10.53
2023-02-02T13:32:54.376Z,11.18
2023-02-02T13:36:20.164Z,8.63
2023-02-02T13:39:43.210Z,9.75
2023-02-02T13:43:07.681Z,9.63
2023-02-02T13:46:41.746Z,10.38
2023-02-02T13:49:58.053Z,11.40
2023-02-02T13:53:21.733Z,11.05
2023-02-02T13:57:12.521Z,10.72
2023-02-02T14:00:39.592Z,9.48
2023-02-02T14:04:00.137Z,11.35
2023-02-02T14:10:05.119Z,14.30
2023-02-02T14:13:10.907Z,12.35
2023-02-02T14:16:18.741Z,9.58
2023-02-02T14:19:47.483Z,9.88
2023-02-02T14:23:01.687Z,9.00
2023-02-02T14:26:22.589Z,11.78
2023-02-02T14:29:52.341Z,11.25
2023-02-02T14:32:57.381Z,11.08
2023-02-02T14:36:07.930Z,11.97
2023-02-02T14:39:20.409Z,10.20
2023-02-02T14:43:08.180Z,12.23
2023-02-02T14:46:39.303Z,13.45
2023-02-02T14:49:47.698Z,11.25
2023-02-02T14:52:53.968Z,11.03
2023-02-02T14:56:23.800Z,12.95
2023-02-02T14:59:44.105Z,11.18
2023-02-02T15:02:53.972Z,11.95
2023-02-02T15:06:01.325Z,11.53
2023-02-02T15:09:32.557Z,11.45
2023-02-02T15:12:47.497Z,11.35
2023-02-02T15:15:54.169Z,12.03
2023-02-02T15:19:04.479Z,11.25
2023-02-02T15:22:09.839Z,11.18
2023-02-02T15:25:18.038Z,12.63
2023-02-02T15:29:13.447Z,13.50
2023-02-02T15:32:20.574Z,23.70
2023-02-02T15:35:38.295Z,15.48
2023-02-02T15:38:53.829Z,15.65
2023-02-02T15:42:01.284Z,14.90
2023-02-02T15:45:07.505Z,15.38
2023-02-02T15:48:14.310Z,15.15
2023-02-02T15:51:30.120Z,13.70
2023-02-02T15:54:41.091Z,14.80
2023-02-02T15:57:49.543Z,15.03
2023-02-02T16:00:55.566Z,15.20
2023-02-02T16:04:08.235Z,15.03
2023-02-02T16:07:14.072Z,16.10
2023-02-02T16:10:20.906Z,15.83
2023-02-02T16:13:43.462Z,18.20
2023-02-02T16:16:54.524Z,18.30
2023-02-02T16:19:59.414Z,19.37
2023-02-02T16:23:06.282Z,19.23
2023-02-02T16:26:12.108Z,18.17
2023-02-02T16:29:17.710Z,19.35
2023-02-02T16:32:50.096Z,20.90
2023-02-02T16:35:57.184Z,19.95
2023-02-02T16:39:04.203Z,21.65
2023-02-02T16:42:09.661Z,22.90
2023-02-02T16:45:09.193Z,20.12
2023-02-02T16:51:40.027Z,19.75
2023-02-02T16:54:35.574Z,19.82
2023-02-02T16:57:43.992Z,18.55
2023-02-02T17:00:49.871Z,17.20
2023-02-02T17:03:59.984Z,18.48
2023-02-02T17:07:06.291Z,25.12
2023-02-02T17:10:38.758Z,29.70
2023-02-02T17:13:50.341Z,23.42
2023-02-02T17:16:56.726Z,19.90
2023-02-02T17:20:02.892Z,20.17
2023-02-02T17:23:13.084Z,17.12
2023-02-02T17:26:18.389Z,16.00
2023-02-02T17:29:33.064Z,15.88
2023-02-02T17:32:40.169Z,14.13
2023-02-02T17:35:55.747Z,13.60
2023-02-02T17:38:53.452Z,12.18
2023-02-02T17:42:00.775Z,13.93
2023-02-02T17:45:06.606Z,13.05
2023-02-02T17:48:14.645Z,17.17
2023-02-02T17:51:23.135Z,16.25
2023-02-02T17:54:28.989Z,20.77
2023-02-02T17:57:34.434Z,19.07
2023-02-02T18:00:41.143Z,18.52
2023-02-02T18:03:50.462Z,19.87
2023-02-02T18:06:56.130Z,18.52
2023-02-02T18:10:01.480Z,18.90
2023-02-02T18:13:07.656Z,18.37
2023-02-02T18:16:14.706Z,17.87
2023-02-02T18:19:21.321Z,16.07
2023-02-02T18:22:28.024Z,14.30
2023-02-02T18:25:33.931Z,13.72
2023-02-02T18:28:39.397Z,12.28
2023-02-02T18:31:45.253Z,10.55
2023-02-02T18:34:53.080Z,9.03
2023-02-02T18:37:52.637Z,9.25
2023-02-02T18:40:58.331Z,8.58
2023-02-02T18:44:04.352Z,7.90
2023-02-02T18:47:10.927Z,8.58
2023-02-02T18:50:17.993Z,7.53
2023-02-02T18:53:24.515Z,7.83
2023-02-02T18:56:30.731Z,7.40
2023-02-02T18:59:38.752Z,7.60
2023-02-02T19:02:45.722Z,7.62
2023-02-02T19:06:09.939Z,10.03
2023-02-02T19:09:15.906Z,10.53
2023-02-02T19:12:26.529Z,13.88
2023-02-02T19:15:33.394Z,11.33
2023-02-02T19:18:39.617Z,9.70
2023-02-02T19:21:48.362Z,9.55
2023-02-02T19:24:54.749Z,16.27
2023-02-02T19:28:00.857Z,9.75
2023-02-02T19:31:07.993Z,9.20
2023-02-02T19:34:13.499Z,8.80
2023-02-02T19:37:35.528Z,7.30
2023-02-02T19:40:40.635Z,5.75
2023-02-02T19:43:48.515Z,5.95
2023-02-02T19:46:58.441Z,5.78
2023-02-02T19:50:03.469Z,5.20
2023-02-02T19:53:11.635Z,4.80
2023-02-02T19:56:18.861Z,8.53
2023-02-02T19:59:31.114Z,6.15
2023-02-02T20:02:53.961Z,5.67
2023-02-02T20:06:02.270Z,4.85
2023-02-02T20:09:08.240Z,3.87
2023-02-02T20:12:14.309Z,3.87
2023-02-02T20:15:30.363Z,4.85
2023-02-02T20:18:47.995Z,3.85
2023-02-02T20:22:00.753Z,4.20
2023-02-02T20:25:07.844Z,3.42
2023-02-02T20:28:15.108Z,3.60
2023-02-02T20:31:22.443Z,3.62
2023-02-02T20:34:44.012Z,4.05
2023-02-02T20:37:50.252Z,3.65
2023-02-02T20:40:55.103Z,3.95
2023-02-02T20:44:01.336Z,3.22
2023-02-02T20:47:07.516Z,3.90
2023-02-02T20:50:13.241Z,4.50
2023-02-02T20:53:22.333Z,3.15
2023-02-02T20:56:27.161Z,3.55
2023-02-02T20:59:33.299Z,3.85
2023-02-02T21:02:39.552Z,3.47
2023-02-02T21:05:45.731Z,4.85
2023-02-02T21:08:51.600Z,3.33
2023-02-02T21:11:57.091Z,3.80
2023-02-02T21:15:02.358Z,3.98
2023-02-02T21:18:07.776Z,3.87
2023-02-02T21:21:13.820Z,4.00
2023-02-02T21:24:18.993Z,3.72
2023-02-02T21:27:24.108Z,3.80
2023-02-02T21:30:29.566Z,4.17
2023-02-02T21:33:36.056Z,3.83
2023-02-02T21:37:00.891Z,3.92
2023-02-02T21:40:07.115Z,4.60
2023-02-02T21:43:15.905Z,4.10
2023-02-02T21:46:36.755Z,4.17
2023-02-02T21:49:48.490Z,6.15
2023-02-02T21:52:54.619Z,6.47
2023-02-02T21:56:02.312Z,5.33
2023-02-02T21:59:10.681Z,4.85
2023-02-02T22:02:22.766Z,7.47
2023-02-02T22:05:43.839Z,7.37
2023-02-02T22:08:50.318Z,10.43
2023-02-02T22:12:05.724Z,9.23
2023-02-02T22:15:16.362Z,8.05
2023-02-02T22:18:36.206Z,8.35
2023-02-02T22:21:43.190Z,10.20
2023-02-02T22:24:49.721Z,6.72
2023-02-02T22:28:00.706Z,5.40
2023-02-02T22:31:08.661Z,3.87
2023-02-02T22:34:14.958Z,3.45
2023-02-02T22:37:20.926Z,4.50
2023-02-02T22:40:29.645Z,5.97
2023-02-02T22:43:36.162Z,5.95
2023-02-02T22:46:42.555Z,4.45
2023-02-02T22:49:49.397Z,4.62
2023-02-02T22:52:57.199Z,6.25
2023-02-02T22:56:04.861Z,5.10
2023-02-02T22:59:11.911Z,3.87
2023-02-02T23:02:16.848Z,4.97
2023-02-02T23:05:25.084Z,4.28
2023-02-02T23:08:32.133Z,3.75
2023-02-02T23:11:38.787Z,4.80
2023-02-02T23:14:44.233Z,4.15
2023-02-02T23:17:50.547Z,4.12
2023-02-02T23:20:57.286Z,4.37
2023-02-02T23:24:03.336Z,4.40
2023-02-02T23:27:09.375Z,4.65
2023-02-02T23:30:15.187Z,5.17
2023-02-02T23:33:21.498Z,4.83
2023-02-02T23:36:26.627Z,5.00
2023-02-02T23:39:32.248Z,5.10
2023-02-02T23:42:38.613Z,5.22
2023-02-02T23:45:45.723Z,4.95
2023-02-02T23:48:51.601Z,4.90
2023-02-02T23:51:58.053Z,4.17
2023-02-02T23:55:04.697Z,4.62
2023-02-02T23:58:10.583Z,5.03
